TK2348 / TC-JRM 7700 Squawk Report (16th of February, 2020)

Aircraft A321 Reg No. TC-JRM Age 9 years old
Model A321 Jet engines 2 First flight 16-03-11
Registered 30-03-11 Rollout N/A Delivered 30-03-11
Construction No. 4643 Line No. N/A Series 231
ADSHEX 4BAA4D Airline name Turkish Airlines Owner N/A
Airfield based Istanbul-Ataturk (Yesilkoy)~Istanbul~TC First tracked N/A
Time Lat Lon Altitude Heading Speed Vertical Rate
2020-02-16 21:45:25 GMT 38.550838 27.134094 5,650 178 273 -1024
2020-02-16 21:45:15 GMT 38.564896 27.133602 5,875 178 276 -1792
2020-02-16 21:45:03 GMT 38.578720 27.133125 6,200 178 277 -1792
2020-02-16 21:44:54 GMT 38.591446 27.132767 6,475 178 279 -1536
2020-02-16 21:44:43 GMT 38.605118 27.132446 6,725 178 280 -1408
2020-02-16 21:44:33 GMT 38.617630 27.132111 6,950 178 282 -1472
2020-02-16 21:44:23 GMT 38.631233 27.131714 7,200 178 284 -1408
2020-02-16 21:44:12 GMT 38.644363 27.131348 7,450 178 285 -1536
2020-02-16 21:44:02 GMT 38.658417 27.130917 7,650 178 289 -704
2020-02-16 21:43:51 GMT 38.672947 27.130493 7,700 178 293 -64
2020-02-16 21:43:40 GMT 38.686958 27.129944 7,700 178 294 0
2020-02-16 21:43:31 GMT 38.701401 27.129364 7,700 178 293 0
2020-02-16 21:43:19 GMT 38.715401 27.128845 7,700 178 290 0
2020-02-16 21:43:10 GMT 38.729050 27.128349 7,725 178 286 -128
2020-02-16 21:42:59 GMT 38.742912 27.127930 7,775 178 286 -640
2020-02-16 21:42:49 GMT 38.756195 27.127453 7,925 178 288 -1024
2020-02-16 21:42:39 GMT 38.770332 27.127014 8,100 178 289 -960
2020-02-16 21:42:28 GMT 38.784348 27.126497 8,275 178 293 -1280
2020-02-16 21:42:18 GMT 38.798904 27.126020 8,525 178 296 -1280
2020-02-16 21:42:07 GMT 38.812977 27.125610 8,725 178 300 -1088
2020-02-16 21:41:56 GMT 38.828152 27.125122 8,925 178 304 -960
2020-02-16 21:41:47 GMT 38.842724 27.124573 9,050 178 310 -768
2020-02-16 21:41:36 GMT 38.857040 27.124109 9,200 178 317 -768
2020-02-16 21:41:26 GMT 38.873886 27.123571 9,350 178 324 -896
2020-02-16 21:41:14 GMT 38.888672 27.123035 9,500 178 332 -896
2020-02-16 21:41:04 GMT 38.904602 27.122377 9,625 178 340 -704
2020-02-16 21:40:55 GMT 38.921116 27.121826 9,725 181 350 -960
2020-02-16 21:40:44 GMT 38.937969 27.122620 9,925 186 360 -1024
2020-02-16 21:40:34 GMT 38.955917 27.125483 10,100 189 371 -768
2020-02-16 21:40:22 GMT 38.975143 27.129305 10,225 189 381 -704
2020-02-16 21:40:12 GMT 38.992310 27.132587 10,325 189 385 -832
2020-02-16 21:40:03 GMT 39.009659 27.135864 10,475 189 390 -1024
2020-02-16 21:39:52 GMT 39.028885 27.139526 10,700 189 394 -1216
2020-02-16 21:39:42 GMT 39.047504 27.143005 10,900 189 393 -1216
2020-02-16 21:39:31 GMT 39.066078 27.146362 11,125 188 391 -1216
2020-02-16 21:39:20 GMT 39.084839 27.149658 11,325 188 385 -1344
2020-02-16 21:39:11 GMT 39.102997 27.152710 11,575 188 382 -1600
2020-02-16 21:39:00 GMT 39.138981 27.158875 12,950 189 372 -2944
2020-02-16 21:38:50 GMT 39.138981 27.158875 12,150 188 368 -1408
2020-02-16 21:38:39 GMT 39.157471 27.162205 12,375 189 369 -1536
2020-02-16 21:38:29 GMT 39.173801 27.165161 12,750 188 373 -3200
2020-02-16 21:38:25 GMT 39.180504 27.166382 12,950 188 374 -3072
2020-02-16 21:38:19 GMT 39.191986 27.168472 13,300 189 376 -3008
2020-02-16 21:38:07 GMT 39.216816 27.172974 13,875 189 380 -2880
2020-02-16 21:38:04 GMT 39.216816 27.172974 14,000 188 381 -3008
2020-02-16 21:37:58 GMT 39.228561 27.175041 14,325 189 383 -2624
2020-02-16 21:37:54 GMT 39.236115 27.176414 14,500 189 385 -2496
2020-02-16 21:37:47 GMT 39.246609 27.178345 14,725 188 390 -2304
2020-02-16 21:37:43 GMT 39.253593 27.179565 14,900 188 391 -2624
2020-02-16 21:37:36 GMT 39.271957 27.182863 15,300 189 393 -3136
2020-02-16 21:37:33 GMT 39.271957 27.182863 15,400 188 394 -3264
2020-02-16 21:37:25 GMT 39.285690 27.185310 15,825 188 394 -3392
2020-02-16 21:37:14 GMT 39.305264 27.188782 16,425 188 395 -3456
2020-02-16 21:37:11 GMT 39.312714 27.190125 16,650 188 395 -3584
2020-02-16 21:37:06 GMT 39.327438 27.192774 17,000 188 395 -3520
2020-02-16 21:37:02 GMT 39.327438 27.192774 17,150 188 395 -3584
2020-02-16 21:36:54 GMT 39.341995 27.195400 17,600 189 397 -3328
2020-02-16 21:36:43 GMT 39.362057 27.199097 18,150 189 400 -3520
2020-02-16 21:36:40 GMT 39.367172 27.200060 18,400 189 400 -3520
2020-02-16 21:36:35 GMT 39.379097 27.202393 18,825 190 402 -3456
2020-02-16 21:36:32 GMT 39.384266 27.203491 18,950 191 403 -3328
2020-02-16 21:36:23 GMT 39.398621 27.206985 19,350 192 408 -3008
2020-02-16 21:36:20 GMT 39.403793 27.208359 19,475 193 410 -2688
2020-02-16 21:36:14 GMT 39.416618 27.211975 19,850 194 412 -2560
2020-02-16 21:36:11 GMT 39.421829 27.213612 19,900 195 412 -2560
2020-02-16 21:36:01 GMT 39.441803 27.220337 20,350 196 414 -2240
2020-02-16 21:35:53 GMT 39.454651 27.225220 20,575 198 416 -1856
2020-02-16 21:35:50 GMT 39.459457 27.227165 20,650 199 418 -1728
2020-02-16 21:35:43 GMT 39.474884 27.233854 20,875 200 421 -1472
2020-02-16 21:35:39 GMT 39.480721 27.236572 20,950 201 422 -1408
2020-02-16 21:35:32 GMT 39.493244 27.242676 21,100 202 426 -1472
2020-02-16 21:35:29 GMT 39.498001 27.245138 21,175 203 428 -1472
2020-02-16 21:35:22 GMT 39.519592 27.257202 21,475 205 434 -1728
2020-02-16 21:35:09 GMT 39.535034 27.266752 21,750 208 438 -1792
2020-02-16 21:35:01 GMT 39.550003 27.276785 22,000 209 440 -1984
2020-02-16 21:34:58 GMT 39.553947 27.279541 22,075 210 440 -2112
2020-02-16 21:34:51 GMT 39.566574 27.288786 22,425 212 441 -2560
2020-02-16 21:34:48 GMT 39.571499 27.292542 22,475 212 441 -2560
2020-02-16 21:34:40 GMT 39.594635 27.311594 23,000 215 442 -2240
2020-02-16 21:34:30 GMT 39.605667 27.321411 23,225 215 445 -1856
2020-02-16 21:34:26 GMT 39.609695 27.325089 23,300 215 446 -1792
2020-02-16 21:34:18 GMT 39.624298 27.338284 23,525 216 450 -1600
2020-02-16 21:34:08 GMT 39.641743 27.354126 23,825 216 453 -2176
2020-02-16 21:34:01 GMT 39.659958 27.370646 24,250 216 453 -2240
2020-02-16 21:33:54 GMT 39.666321 27.376436 24,375 216 454 -2176
2020-02-16 21:33:50 GMT 39.671444 27.381104 24,550 216 455 -2176
2020-02-16 21:33:47 GMT 39.677498 27.386597 24,625 216 455 -2176
2020-02-16 21:33:43 GMT 39.685043 27.393515 24,775 216 455 -2112
2020-02-16 21:33:40 GMT 39.689346 27.397453 24,875 216 456 -2048
2020-02-16 21:33:36 GMT 39.695206 27.402828 24,975 216 456 -1920
2020-02-16 21:33:30 GMT 39.713013 27.419128 25,300 216 459 -1792
2020-02-16 21:33:27 GMT 39.713013 27.419128 25,300 216 460 -1856
2020-02-16 21:33:23 GMT 39.720520 27.425995 25,425 216 461 -1920
2020-02-16 21:33:19 GMT 39.725723 27.430847 25,525 216 461 -1984
2020-02-16 21:33:15 GMT 39.732895 27.437378 25,650 216 463 -2048
2020-02-16 21:33:12 GMT 39.743740 27.447327 25,875 216 464 -1984
2020-02-16 21:33:08 GMT 39.743740 27.447327 25,875 216 464 -1984
2020-02-16 21:33:05 GMT 39.748993 27.452147 25,975 216 466 -1856
2020-02-16 21:33:02 GMT 39.757286 27.459717 26,100 216 468 -1536
2020-02-16 21:32:58 GMT 39.762222 27.464233 26,175 216 468 -1408
2020-02-16 21:32:55 GMT 39.768265 27.469761 26,250 216 470 -1216
2020-02-16 21:32:51 GMT 39.776279 27.477051 26,325 216 473 -1216
2020-02-16 21:32:48 GMT 39.778976 27.479494 26,400 216 475 -1472
2020-02-16 21:32:44 GMT 39.786335 27.486206 26,450 216 475 -1536
2020-02-16 21:32:39 GMT 39.797367 27.496216 26,625 216 478 -1536
2020-02-16 21:32:34 GMT 39.805298 27.503496 26,725 216 478 -1408
2020-02-16 21:32:27 GMT 39.816879 27.514124 26,875 216 479 -1088
2020-02-16 21:32:23 GMT 39.824135 27.520752 26,925 216 479 -768
2020-02-16 21:32:19 GMT 39.834286 27.530090 26,975 216 479 -384
2020-02-16 21:32:13 GMT 39.842430 27.537537 27,000 216 478 -64
2020-02-16 21:32:07 GMT 39.860680 27.554260 27,000 216 477 0
2020-02-16 21:31:57 GMT 39.872551 27.565186 27,000 216 474 -64
2020-02-16 21:31:53 GMT 39.879581 27.571594 27,000 216 474 -64
2020-02-16 21:31:47 GMT 39.898499 27.588940 27,025 216 470 -64
2020-02-16 21:31:42 GMT 39.898499 27.588940 27,025 216 467 0
2020-02-16 21:31:36 GMT 39.909931 27.599487 27,025 216 464 64
2020-02-16 21:31:32 GMT 39.916077 27.605103 27,000 216 463 0
2020-02-16 21:31:27 GMT 39.925690 27.614014 27,000 216 463 0
2020-02-16 21:31:23 GMT 39.934093 27.621752 27,000 216 463 0
2020-02-16 21:31:18 GMT 39.942490 27.629517 27,000 216 464 0
2020-02-16 21:31:15 GMT 39.945267 27.632051 27,000 216 464 0
2020-02-16 21:31:12 GMT 39.951782 27.638042 27,000 216 464 0
2020-02-16 21:31:05 GMT 39.963654 27.649031 27,000 216 464 0
2020-02-16 21:31:01 GMT 39.969799 27.654648 27,000 216 464 0
2020-02-16 21:30:55 GMT 39.980690 27.664698 27,000 216 463 0
2020-02-16 21:30:52 GMT 39.987862 27.671314 27,000 216 463 -64
2020-02-16 21:30:44 GMT 39.999729 27.682238 27,000 216 462 -64
2020-02-16 21:30:41 GMT 40.005505 27.687544 27,000 216 461 0
2020-02-16 21:30:34 GMT 40.018494 27.699593 27,000 216 458 0
2020-02-16 21:30:30 GMT 40.024567 27.705200 27,000 216 456 64
2020-02-16 21:30:24 GMT 40.034180 27.714111 27,000 216 455 0
2020-02-16 21:30:21 GMT 40.040863 27.720337 27,000 216 454 0
2020-02-16 21:30:15 GMT 40.050476 27.729187 27,000 216 453 0
2020-02-16 21:30:11 GMT 40.059040 27.737108 27,000 216 452 0
2020-02-16 21:30:04 GMT 40.069607 27.746908 27,000 216 451 -64
2020-02-16 21:30:00 GMT 40.076752 27.753479 27,000 216 448 -64
2020-02-16 21:29:53 GMT 40.087921 27.763794 27,000 216 444 -64
2020-02-16 21:29:49 GMT 40.094421 27.769836 27,000 216 441 0
2020-02-16 21:29:43 GMT 40.104240 27.778868 27,000 216 436 64
2020-02-16 21:29:40 GMT 40.111176 27.785278 27,000 216 434 64
2020-02-16 21:29:32 GMT 40.122665 27.795837 27,000 216 432 64
2020-02-16 21:29:29 GMT 40.127701 27.800537 27,000 216 432 0
2020-02-16 21:29:22 GMT 40.139145 27.811096 27,000 216 432 0
2020-02-16 21:29:12 GMT 40.155624 27.826294 27,000 216 433 0
2020-02-16 21:29:02 GMT 40.171974 27.841415 27,000 216 433 0
2020-02-16 21:28:56 GMT 40.183868 27.852478 27,000 216 432 0
2020-02-16 21:28:53 GMT 40.186314 27.854712 27,000 216 432 0
2020-02-16 21:28:49 GMT 40.194626 27.862427 27,000 216 432 0
2020-02-16 21:28:41 GMT 40.207123 27.874062 27,000 216 431 64
2020-02-16 21:28:37 GMT 40.212803 27.879368 27,000 216 430 0
2020-02-16 21:28:33 GMT 40.219299 27.885437 27,000 216 430 0
2020-02-16 21:28:28 GMT 40.227585 27.893127 27,000 216 430 0
2020-02-16 21:28:21 GMT 40.239147 27.903837 27,000 216 430 0
2020-02-16 21:28:17 GMT 40.246086 27.910330 27,000 216 430 0
2020-02-16 21:28:11 GMT 40.254883 27.918507 27,000 216 430 0
2020-02-16 21:28:07 GMT 40.261368 27.924561 27,000 216 430 0
2020-02-16 21:28:02 GMT 40.269642 27.932240 27,000 216 430 0
2020-02-16 21:27:59 GMT 40.273689 27.936049 27,000 216 430 -64
2020-02-16 21:27:56 GMT 40.279541 27.941467 27,000 216 430 0
2020-02-16 21:27:50 GMT 40.288960 27.950218 27,000 216 430 0
2020-02-16 21:27:46 GMT 40.294640 27.955523 27,000 216 430 0
2020-02-16 21:27:40 GMT 40.305347 27.965511 27,000 216 430 0
2020-02-16 21:27:37 GMT 40.311539 27.971252 27,000 216 432 -64
2020-02-16 21:27:29 GMT 40.322937 27.981873 27,025 216 433 0
2020-02-16 21:27:26 GMT 40.328018 27.986572 27,000 216 434 0
2020-02-16 21:27:21 GMT 40.336163 27.994225 27,000 216 437 0
2020-02-16 21:27:16 GMT 40.344589 28.002014 27,000 216 439 0
2020-02-16 21:27:09 GMT 40.355995 28.012703 27,000 216 442 0
2020-02-16 21:27:06 GMT 40.361664 28.018005 27,000 216 445 0
2020-02-16 21:27:01 GMT 40.376633 28.031982 27,000 216 451 0
2020-02-16 21:26:57 GMT 40.380203 28.035278 27,000 216 453 0
2020-02-16 21:26:50 GMT 40.387711 28.042358 27,000 216 457 64
2020-02-16 21:26:45 GMT 40.397003 28.051025 26,975 216 462 64
2020-02-16 21:26:38 GMT 40.408539 28.061829 26,975 216 468 64
2020-02-16 21:26:34 GMT 40.414902 28.067749 26,975 216 472 64
2020-02-16 21:26:29 GMT 40.423775 28.076122 26,975 216 475 0
2020-02-16 21:26:25 GMT 40.432938 28.084656 27,000 216 476 64
2020-02-16 21:26:20 GMT 40.442093 28.093201 26,975 216 476 64
2020-02-16 21:26:14 GMT 40.451797 28.102295 26,975 216 476 64
2020-02-16 21:26:07 GMT 40.464554 28.114201 26,975 216 476 128
2020-02-16 21:26:04 GMT 40.469925 28.119263 26,975 216 475 256
2020-02-16 21:25:59 GMT 40.478348 28.127136 26,950 216 474 448
2020-02-16 21:25:54 GMT 40.489227 28.137297 26,900 216 473 448
2020-02-16 21:25:49 GMT 40.496338 28.143982 26,850 216 473 448
2020-02-16 21:25:43 GMT 40.507050 28.153992 26,800 216 472 576
2020-02-16 21:25:36 GMT 40.518402 28.164673 26,750 216 470 768
2020-02-16 21:25:33 GMT 40.525120 28.171005 26,675 216 470 896
2020-02-16 21:25:26 GMT 40.543762 28.188599 26,500 216 467 1088
2020-02-16 21:25:22 GMT 40.543762 28.188599 26,500 216 467 1088
2020-02-16 21:25:17 GMT 40.551865 28.196167 26,400 216 466 1088
2020-02-16 21:25:13 GMT 40.560268 28.204088 26,225 216 462 1088
2020-02-16 21:25:07 GMT 40.578735 28.221497 26,200 216 462 1024
2020-02-16 21:25:03 GMT 40.578735 28.221497 26,125 216 462 1024
2020-02-16 21:24:56 GMT 40.589828 28.231993 26,025 216 461 1024
2020-02-16 21:24:52 GMT 40.596771 28.238525 25,950 216 460 1024
2020-02-16 21:24:48 GMT 40.604725 28.246037 25,875 216 460 1024
2020-02-16 21:24:41 GMT 40.614452 28.255152 25,775 216 460 1152
2020-02-16 21:24:35 GMT 40.625858 28.265949 25,675 216 460 1216
2020-02-16 21:24:32 GMT 40.632282 28.272005 25,550 216 459 1472
2020-02-16 21:24:25 GMT 40.643314 28.282429 25,400 216 458 1472
2020-02-16 21:24:21 GMT 40.649693 28.288422 25,300 216 458 1472
2020-02-16 21:24:15 GMT 40.660538 28.298706 25,200 216 457 1472
2020-02-16 21:24:10 GMT 40.668732 28.306461 25,025 216 455 1472
2020-02-16 21:24:07 GMT 40.674927 28.312328 24,950 216 455 1472
2020-02-16 21:24:01 GMT 40.685486 28.322327 24,800 216 454 1600
2020-02-16 21:23:54 GMT 40.696247 28.332430 24,625 216 454 1664
2020-02-16 21:23:50 GMT 40.703613 28.339417 24,500 216 453 1728
2020-02-16 21:23:46 GMT 40.710445 28.345850 24,400 216 452 1600
2020-02-16 21:23:43 GMT 40.714867 28.350033 24,325 216 452 1536
2020-02-16 21:23:39 GMT 40.721478 28.356276 24,200 216 452 1536
2020-02-16 21:23:33 GMT 40.731125 28.365417 24,125 216 451 1600
2020-02-16 21:23:29 GMT 40.737911 28.371819 23,925 216 449 1600
2020-02-16 21:23:26 GMT 40.747833 28.381226 23,800 216 448 1600
2020-02-16 21:23:20 GMT 40.756065 28.389046 23,625 216 446 1536
2020-02-16 21:23:13 GMT 40.765610 28.398098 23,525 216 445 1472
2020-02-16 21:23:09 GMT 40.772964 28.405088 23,450 216 444 1536
2020-02-16 21:23:05 GMT 40.778824 28.410645 23,325 216 442 1728
2020-02-16 21:23:02 GMT 40.782787 28.414391 23,250 216 442 1856
2020-02-16 21:22:58 GMT 40.791275 28.422424 23,075 216 441 2048
2020-02-16 21:22:52 GMT 40.799545 28.430307 22,900 216 441 2112
2020-02-16 21:22:49 GMT 40.806656 28.437073 22,475 216 441 2112
2020-02-16 21:22:45 GMT 40.812950 28.443043 22,625 216 440 2112
2020-02-16 21:22:38 GMT 40.823521 28.453093 22,225 216 436 1472
2020-02-16 21:22:32 GMT 40.833572 28.462708 22,250 216 438 1472
2020-02-16 21:22:29 GMT 40.838837 28.467699 22,175 216 436 1472
2020-02-16 21:22:22 GMT 40.849960 28.478310 21,975 216 434 1792
2020-02-16 21:22:19 GMT 40.856140 28.484192 21,875 216 434 2048
2020-02-16 21:22:12 GMT 40.866581 28.494165 21,675 216 433 2240
2020-02-16 21:22:08 GMT 40.872910 28.500221 21,475 216 433 2240
2020-02-16 21:22:01 GMT 40.883469 28.510315 21,275 216 433 2368
2020-02-16 21:21:57 GMT 40.895508 28.521790 20,925 216 433 2432
2020-02-16 21:21:51 GMT 40.900375 28.526438 20,800 216 433 2176
2020-02-16 21:21:47 GMT 40.906055 28.531870 20,700 216 433 1984
2020-02-16 21:21:41 GMT 40.916611 28.541931 20,500 216 431 1792
2020-02-16 21:21:38 GMT 40.922745 28.547791 20,375 217 430 1792
2020-02-16 21:21:33 GMT 40.933365 28.557983 20,225 216 427 1728
2020-02-16 21:21:27 GMT 40.939270 28.563599 20,075 216 426 1664
2020-02-16 21:21:20 GMT 40.949631 28.573566 19,900 216 423 1728
2020-02-16 21:21:16 GMT 40.955822 28.579433 19,800 216 422 1728
2020-02-16 21:21:10 GMT 40.966095 28.589294 19,600 216 419 1920
2020-02-16 21:21:05 GMT 40.972870 28.595764 19,450 216 419 2048
2020-02-16 21:21:02 GMT 40.978363 28.601013 19,325 216 418 2176
2020-02-16 21:20:59 GMT 40.982449 28.604902 19,225 216 418 2176
2020-02-16 21:20:56 GMT 40.987793 28.609985 19,100 216 416 2176
2020-02-16 21:20:49 GMT 40.998413 28.620117 18,900 216 415 2240
2020-02-16 21:20:46 GMT 41.003399 28.624878 18,725 216 415 2304
2020-02-16 21:20:39 GMT 41.014297 28.635193 18,475 216 414 2368
2020-02-16 21:20:35 GMT 41.020203 28.640858 18,325 216 413 2304
2020-02-16 21:20:31 GMT 41.026253 28.646601 18,175 216 412 2112
2020-02-16 21:20:28 GMT 41.030594 28.650696 18,075 216 411 1984
2020-02-16 21:20:25 GMT 41.035843 28.655716 17,975 216 409 1920
2020-02-16 21:20:20 GMT 41.044922 28.664307 17,750 216 407 1984
2020-02-16 21:20:16 GMT 41.051056 28.670105 17,650 216 405 2048
2020-02-16 21:20:09 GMT 41.060982 28.679497 17,500 216 404 2240
2020-02-16 21:20:05 GMT 41.067352 28.685547 17,225 216 402 2560
2020-02-16 21:19:58 GMT 41.077332 28.695007 17,050 216 402 2624
2020-02-16 21:19:54 GMT 41.082779 28.700195 16,775 216 401 2624
2020-02-16 21:19:51 GMT 41.088959 28.706116 16,600 216 401 2496
2020-02-16 21:19:48 GMT 41.092590 28.709585 16,500 217 400 2368
2020-02-16 21:19:44 GMT 41.097977 28.714722 16,375 217 399 2176
2020-02-16 21:19:40 GMT 41.104706 28.721252 16,225 217 397 1920
2020-02-16 21:19:37 GMT 41.108280 28.724691 16,150 217 395 1984
2020-02-16 21:19:33 GMT 41.114365 28.730530 16,000 217 394 1984
2020-02-16 21:19:30 GMT 41.119358 28.735365 15,900 217 392 2112
2020-02-16 21:19:27 GMT 41.123016 28.738892 15,800 217 391 2240
2020-02-16 21:19:24 GMT 41.128437 28.744104 15,650 217 389 2368
2020-02-16 21:19:17 GMT 41.137894 28.753296 15,400 217 387 2240
2020-02-16 21:19:13 GMT 41.143379 28.758650 15,250 217 386 2304
2020-02-16 21:19:10 GMT 41.149567 28.764648 15,075 217 384 2432
2020-02-16 21:19:07 GMT 41.153015 28.768011 15,000 217 383 2560
2020-02-16 21:19:04 GMT 41.158722 28.773621 14,800 217 383 2816
2020-02-16 21:18:59 GMT 41.163940 28.778870 14,625 217 383 2880
2020-02-16 21:18:56 GMT 41.167786 28.782654 14,500 217 382 2816
2020-02-16 21:18:53 GMT 41.172455 28.787292 14,350 218 382 2816
2020-02-16 21:18:49 GMT 41.178387 28.793230 14,150 218 381 2688
2020-02-16 21:18:46 GMT 41.182068 28.796875 14,050 218 381 2624
2020-02-16 21:18:42 GMT 41.187241 28.802124 13,875 218 379 2560
2020-02-16 21:18:39 GMT 41.197243 28.812332 13,600 218 377 2368
2020-02-16 21:18:35 GMT 41.201385 28.816589 13,475 219 374 2304
2020-02-16 21:18:29 GMT 41.206879 28.822256 13,325 219 373 2304
2020-02-16 21:18:23 GMT 41.215256 28.830996 13,075 219 370 2496
2020-02-16 21:18:16 GMT 41.223999 28.840210 12,775 219 368 2752
2020-02-16 21:18:12 GMT 41.228523 28.844978 12,625 219 368 2816
2020-02-16 21:18:08 GMT 41.234249 28.851034 12,425 219 367 2880
2020-02-16 21:18:05 GMT 41.237740 28.854717 12,300 219 367 2816
2020-02-16 21:18:02 GMT 41.242630 28.859898 12,125 218 366 2816
2020-02-16 21:17:55 GMT 41.251472 28.868950 11,800 218 364 2880
2020-02-16 21:17:51 GMT 41.256454 28.873943 11,625 217 364 3072
2020-02-16 21:17:48 GMT 41.262646 28.879997 11,375 216 363 3264
2020-02-16 21:17:45 GMT 41.265289 28.882446 11,275 215 363 3200
2020-02-16 21:17:40 GMT 41.273212 28.889486 11,000 211 365 2624
2020-02-16 21:17:37 GMT 41.276100 28.891733 10,900 208 365 2240
2020-02-16 21:17:34 GMT 41.279892 28.894470 10,825 203 361 1920
2020-02-16 21:17:27 GMT 41.291325 28.899849 10,650 191 345 896
2020-02-16 21:17:24 GMT 41.296646 28.901184 10,600 186 340 832
2020-02-16 21:17:20 GMT 41.302544 28.901657 10,550 179 331 896
2020-02-16 21:17:14 GMT 41.311707 28.901062 10,450 170 315 1088
2020-02-16 21:17:06 GMT 41.322098 28.898560 10,300 168 304 1216
2020-02-16 21:17:03 GMT 41.326401 28.897461 10,250 169 300 1344
2020-02-16 21:16:56 GMT 41.336060 28.895042 10,075 169 292 1728
2020-02-16 21:16:53 GMT 41.339813 28.894104 9,975 169 289 2112
2020-02-16 21:16:46 GMT 41.349701 28.891541 9,600 165 288 3328
2020-02-16 21:16:43 GMT 41.353794 28.890173 9,450 158 285 3072
2020-02-16 21:16:36 GMT 41.362335 28.885071 9,100 145 278 2752
2020-02-16 21:16:25 GMT 41.372269 28.873901 8,650 126 269 2688
2020-02-16 21:16:22 GMT 41.374931 28.869074 8,475 121 267 2752
2020-02-16 21:16:16 GMT 41.378841 28.859274 8,150 108 261 2880
2020-02-16 21:16:12 GMT 41.380005 28.855215 8,025 103 259 3008
2020-02-16 21:16:05 GMT 41.381775 28.843355 7,650 93 256 3008
2020-02-16 21:16:01 GMT 41.381973 28.838318 7,500 90 254 3136
2020-02-16 21:15:55 GMT 41.381912 28.827438 7,100 89 253 3520
2020-02-16 21:15:45 GMT 41.381912 28.812019 6,525 90 253 3456
2020-02-16 21:15:35 GMT 41.382008 28.795729 5,925 91 252 3136
2020-02-16 21:15:24 GMT 41.382332 28.779873 5,375 91 249 3392
2020-02-16 21:15:14 GMT 41.382385 28.764587 4,775 83 248 3392
2020-02-16 21:15:04 GMT 41.379684 28.749817 4,250 59 246 2880
2020-02-16 21:14:54 GMT 41.372929 28.737425 3,775 39 244 2496
2020-02-16 21:14:43 GMT 41.363251 28.729309 3,375 19 235 1728
2020-02-16 21:14:33 GMT 41.352772 28.726315 3,150 1 217 1024
2020-02-16 21:14:22 GMT 41.342529 28.725941 2,950 1 201 1536
2020-02-16 21:14:13 GMT 41.333084 28.725586 2,725 1 187 1408
2020-02-16 21:14:01 GMT 41.323975 28.725281 2,425 0 176 1664
2020-02-16 21:13:52 GMT 41.316193 28.725098 2,225 0 161 1216
2020-02-16 21:13:42 GMT 41.309105 28.725002 1,975 0 153 1792
2020-02-16 21:13:31 GMT 41.301819 28.725037 1,650 0 146 1984
2020-02-16 21:13:22 GMT 41.294815 28.725065 1,225 0 144 3008

Making use of Plane Finder data

You are free to use the raw flight data, aircraft information and images provided in this report for your own purposes provided the data is correctly attributed to Plane Finder. We ask that you please credit Plane Finder and link to planefinder.net in close proximity to the content.

Optionally one of the following logos (no smaller then 150x24px) can be used and must link to planefinder.net

Embedding the Plane Finder map

You are welcome to embed the Plane Finder playback map on your website to offer visitors a more interactive experience. We suggest using the following HTML code:

<iframe src="//planefinder.net/data/report/TK2348-TC-JRM-7700-squawk-2020-02-16/map" width="800" height="600" seamless="seamless"></iframe>

Where our data comes from

Plane Finder has a global network of data feeds and antenna radars that receive data broadcast directly from aircraft. The primary technologies used are ADS-B and MLAT. We also show feeds from the FAA and a FLARM glider feed.

Click here to find out more about the Plane Finder network.

How we collect our data